Time;durP1;ratioP1;P1;durP2;ratioP2;P2;SDS_P1;SDS_P2;PMS_P1;PMS_P2;Temp;Humidity;BMP_temperature;BMP_pressure;BME280_temperature;BME280_humidity;BME280_pressure;Samples;Min_cycle;Max_cycle;Signal;HPM_P1;HPM_P2
2022/03/20 00:01:44;;;;;;;;;;;;;;;5.31;100.00;100824.00;5054891;28;19975;-76
2022/03/20 00:04:30;;;;;;;;;;;;;;;5.36;100.00;100815.44;5066627;28;19932;-77
2022/03/20 00:07:17;;;;;;;;;;;;;;;5.20;100.00;100813.69;5053913;28;19932;-77
2022/03/20 00:10:04;;;;;;;;;;;;;;;5.34;100.00;100820.53;5054213;28;19931;-77
2022/03/20 00:12:35;;;;;;;;;;;;;;;5.27;100.00;100792.56;5088631;28;20021;-76
2022/03/20 00:15:23;;;;;;;;;;;;;;;5.18;100.00;100789.09;5064896;28;20046;-76
2022/03/20 00:18:13;;;;;;;;;;;;;;;5.41;100.00;100794.97;5050591;28;19968;-76
2022/03/20 00:20:43;;;;;;;;;;;;;;;5.31;100.00;100771.34;5034618;28;19925;-77
2022/03/20 00:23:12;;;;;;;;;;;;;;;5.13;100.00;100780.22;5034777;28;19929;-76
2022/03/20 00:25:59;;;;;;;;;;;;;;;5.14;100.00;100766.03;5050448;28;19925;-77
2022/03/20 00:28:46;;;;;;;;;;;;;;;5.12;100.00;100751.69;5050616;28;20071;-76
2022/03/20 00:31:16;;;;;;;;;;;;;;;5.17;100.00;100759.78;5053984;28;20376;-77
2022/03/20 00:33:49;;;;;;;;;;;;;;;5.13;100.00;100756.09;5055178;28;19925;-76
2022/03/20 00:36:39;;;;;;;;;;;;;;;5.23;100.00;100741.75;5054419;28;19925;-77
2022/03/20 00:39:08;;;;;;;;;;;;;;;5.15;100.00;100737.16;5054581;28;20464;-76
2022/03/20 00:41:43;;;;;;;;;;;;;;;5.06;100.00;100736.47;5039528;28;19924;-77
2022/03/20 00:44:16;;;;;;;;;;;;;;;5.02;100.00;100730.00;5054808;28;19932;-76
2022/03/20 00:47:22;;;;;;;;;;;;;;;5.01;100.00;100722.81;5054616;28;20132;-76
2022/03/20 00:50:24;;;;;;;;;;;;;;;5.03;100.00;100723.28;5054269;28;20008;-76
2022/03/20 00:52:53;;;;;;;;;;;;;;;4.99;100.00;100714.06;5054648;28;19925;-77
2022/03/20 00:55:20;;;;;;;;;;;;;;;5.04;100.00;100719.38;5054997;28;19947;-77
2022/03/20 00:57:48;;;;;;;;;;;;;;;5.05;100.00;100718.22;5038425;28;20372;-76
2022/03/20 01:00:16;;;;;;;;;;;;;;;5.09;100.00;100719.13;5037937;28;19925;-77
2022/03/20 01:03:06;;;;;;;;;;;;;;;5.13;100.00;100722.84;5038074;28;19931;-76
2022/03/20 01:05:35;;;;;;;;;;;;;;;5.22;100.00;100709.69;5038228;28;20027;-77
2022/03/20 01:08:07;;;;;;;;;;;;;;;5.31;100.00;100704.81;5053226;28;19925;-77
2022/03/20 01:10:42;;;;;;;;;;;;;;;5.22;100.00;100711.63;5021397;28;19958;-77
2022/03/20 01:13:20;;;;;;;;;;;;;;;5.25;100.00;100714.53;5033893;28;19925;-77
2022/03/20 01:15:47;;;;;;;;;;;;;;;5.25;100.00;100711.75;5034386;28;19929;-76
2022/03/20 01:18:40;;;;;;;;;;;;;;;5.16;100.00;100713.84;5027349;28;20275;-76
2022/03/20 01:21:36;;;;;;;;;;;;;;;5.30;100.00;100703.16;5073768;28;19931;-77
2022/03/20 01:24:04;;;;;;;;;;;;;;;5.45;100.00;100705.22;5071088;28;20016;-77
2022/03/20 01:26:52;;;;;;;;;;;;;;;5.33;100.00;100696.94;5072239;28;20055;-77
2022/03/20 01:29:19;;;;;;;;;;;;;;;5.31;100.00;100698.44;5073341;28;19924;-77
2022/03/20 01:31:49;;;;;;;;;;;;;;;5.43;100.00;100690.91;5074168;28;19950;-77
2022/03/20 01:34:16;;;;;;;;;;;;;;;5.41;100.00;100679.38;5057702;28;20419;-77
2022/03/20 01:36:43;;;;;;;;;;;;;;;5.55;100.00;100677.03;5074374;28;20019;-77
2022/03/20 01:39:10;;;;;;;;;;;;;;;5.45;100.00;100685.81;5057295;28;19997;-77
2022/03/20 01:41:38;;;;;;;;;;;;;;;5.46;100.00;100673.59;5073247;28;19925;-77
2022/03/20 01:44:09;;;;;;;;;;;;;;;5.65;100.00;100670.16;5329763;22;19959;31
2022/03/20 01:46:36;;;;;;;;;;;;;;;5.78;100.00;100673.69;5000225;28;19926;-77
2022/03/20 01:49:03;;;;;;;;;;;;;;;5.71;100.00;100667.94;4976761;28;19965;-76
2022/03/20 01:52:24;;;;;;;;;;;;;;;5.90;100.00;100665.34;4978724;28;19973;-77
2022/03/20 01:54:17;;;;;;;;;;;;;;;5.77;100.00;100661.78;4995271;28;19925;-77
2022/03/20 01:56:46;;;;;;;;;;;;;;;5.75;100.00;100649.44;4994983;28;19932;-77
2022/03/20 01:59:45;;;;;;;;;;;;;;;5.89;100.00;100652.66;4974672;28;19977;-77
2022/03/20 02:02:18;;;;;;;;;;;;;;;6.01;100.00;100650.63;4975103;28;19936;-77
2022/03/20 02:04:54;;;;;;;;;;;;;;;5.93;100.00;100648.00;5000252;28;20022;-77
2022/03/20 02:07:28;;;;;;;;;;;;;;;5.87;100.00;100644.69;4995694;28;19961;-77
2022/03/20 02:09:56;;;;;;;;;;;;;;;5.85;100.00;100632.31;4995604;28;20144;-77
2022/03/20 02:12:23;;;;;;;;;;;;;;;5.78;100.00;100641.22;4977855;28;19929;-76
2022/03/20 02:14:51;;;;;;;;;;;;;;;6.21;100.00;100632.13;5010506;28;19983;-77
2022/03/20 02:17:18;;;;;;;;;;;;;;;5.93;100.00;100625.78;4995574;28;20005;-77
2022/03/20 02:20:09;;;;;;;;;;;;;;;5.95;100.00;100623.47;5020389;28;20331;-77
2022/03/20 02:22:56;;;;;;;;;;;;;;;6.13;100.00;100631.13;4993931;28;19955;-77
2022/03/20 02:25:49;;;;;;;;;;;;;;;6.31;100.00;100620.47;4993792;28;20389;-77
2022/03/20 02:28:28;;;;;;;;;;;;;;;6.10;100.00;100606.03;4995480;28;19929;-77
2022/03/20 02:31:14;;;;;;;;;;;;;;;6.05;100.00;100611.84;5021916;28;19933;-77
2022/03/20 02:33:50;;;;;;;;;;;;;;;5.99;100.00;100616.03;4994788;28;19932;-77
2022/03/20 02:36:40;;;;;;;;;;;;;;;6.28;100.00;100621.19;4997280;28;19964;-77
2022/03/20 02:39:09;;;;;;;;;;;;;;;6.09;100.00;100612.78;4994667;28;20028;-77
2022/03/20 02:41:49;;;;;;;;;;;;;;;5.99;100.00;100603.00;4960401;28;19995;-77
2022/03/20 02:44:18;;;;;;;;;;;;;;;6.18;100.00;100600.31;4996741;28;19933;-78
2022/03/20 02:47:25;;;;;;;;;;;;;;;6.18;100.00;100599.53;5000031;28;19968;-77
2022/03/20 02:50:00;;;;;;;;;;;;;;;6.29;100.00;100606.94;5013880;28;19926;-77
2022/03/20 02:53:03;;;;;;;;;;;;;;;6.16;100.00;100616.53;4994004;28;19926;-77
2022/03/20 02:55:49;;;;;;;;;;;;;;;6.30;100.00;100607.75;4999037;28;19979;-77
2022/03/20 02:58:34;;;;;;;;;;;;;;;6.20;100.00;100602.72;5014334;28;20445;-77
2022/03/20 03:01:21;;;;;;;;;;;;;;;6.25;100.00;100605.25;4999646;28;20019;-77
2022/03/20 03:04:00;;;;;;;;;;;;;;;6.16;100.00;100607.38;5014271;28;20007;-78
2022/03/20 03:06:47;;;;;;;;;;;;;;;6.20;100.00;100602.72;5011249;28;20083;-78
2022/03/20 03:12:39;;;;;;;;;;;;;;;6.43;100.00;100606.50;4982585;28;19925;-78
2022/03/20 03:15:27;;;;;;;;;;;;;;;6.20;100.00;100594.41;5012085;28;19952;-78
2022/03/20 03:18:17;;;;;;;;;;;;;;;6.05;100.00;100600.75;4999266;28;19929;-77
2022/03/20 03:20:47;;;;;;;;;;;;;;;6.22;100.00;100587.34;5013788;28;19932;-77
2022/03/20 03:23:16;;;;;;;;;;;;;;;5.94;100.00;100585.81;5012489;28;20003;-77
2022/03/20 03:25:43;;;;;;;;;;;;;;;5.89;100.00;100591.63;5013720;28;20388;-77
2022/03/20 03:28:34;;;;;;;;;;;;;;;5.75;100.00;100575.34;5013730;28;19933;-77
2022/03/20 03:31:02;;;;;;;;;;;;;;;5.87;100.00;100577.28;5013810;28;19936;-77
2022/03/20 03:33:29;;;;;;;;;;;;;;;5.88;100.00;100565.03;4996120;28;20024;-77
2022/03/20 03:35:57;;;;;;;;;;;;;;;5.83;100.00;100571.63;5013400;28;19926;-77
2022/03/20 03:38:47;;;;;;;;;;;;;;;5.89;100.00;100569.41;5013003;28;20012;-78
2022/03/20 03:41:51;;;;;;;;;;;;;;;5.90;100.00;100565.47;4993662;28;19925;-77
2022/03/20 03:44:39;;;;;;;;;;;;;;;5.80;100.00;100557.66;4992150;28;19930;-78
2022/03/20 03:47:16;;;;;;;;;;;;;;;5.66;100.00;100565.59;4994250;28;19925;-77
2022/03/20 03:49:45;;;;;;;;;;;;;;;5.81;100.00;100567.56;4993662;28;19933;-77
2022/03/20 03:52:33;;;;;;;;;;;;;;;5.85;100.00;100557.41;4979057;28;19925;-78
2022/03/20 03:55:20;;;;;;;;;;;;;;;5.89;100.00;100561.91;4989004;28;19936;-78
2022/03/20 03:58:08;;;;;;;;;;;;;;;5.81;100.00;100546.19;4952568;29;19930;-77
2022/03/20 04:01:01;;;;;;;;;;;;;;;5.87;100.00;100541.22;4943333;29;19931;-78
2022/03/20 04:03:29;;;;;;;;;;;;;;;5.90;100.00;100538.53;4948062;29;19937;-78
2022/03/20 04:06:04;;;;;;;;;;;;;;;5.82;100.00;100533.16;4952378;28;19926;-78
2022/03/20 04:08:34;;;;;;;;;;;;;;;5.64;100.00;100538.22;4952489;29;19933;-78
2022/03/20 04:11:34;;;;;;;;;;;;;;;5.46;100.00;100537.72;4902740;29;19950;-77
2022/03/20 04:14:26;;;;;;;;;;;;;;;5.40;100.00;100536.38;4907333;29;19935;-77
2022/03/20 04:17:20;;;;;;;;;;;;;;;5.48;100.00;100549.25;4913575;29;20348;-77
2022/03/20 04:20:03;;;;;;;;;;;;;;;5.40;100.00;100535.56;4869178;29;19927;-77
2022/03/20 04:26:03;;;;;;;;;;;;;;;5.45;100.00;100533.31;4876734;29;19934;-77
2022/03/20 04:28:56;;;;;;;;;;;;;;;5.40;100.00;100532.78;4862553;29;19927;-77
2022/03/20 04:31:54;;;;;;;;;;;;;;;5.88;100.00;100520.66;4876566;29;20026;-77
2022/03/20 04:34:42;;;;;;;;;;;;;;;5.63;100.00;100531.84;4848473;29;19983;-78
2022/03/20 04:37:39;;;;;;;;;;;;;;;5.40;100.00;100525.28;4868264;29;19950;-78
2022/03/20 04:40:28;;;;;;;;;;;;;;;5.52;100.00;100521.63;4889174;29;20022;-78
2022/03/20 04:42:56;;;;;;;;;;;;;;;5.50;100.00;100516.44;4844033;29;19951;-78
2022/03/20 04:45:41;;;;;;;;;;;;;;;5.52;100.00;100511.38;4858058;29;19936;-78
2022/03/20 05:01:37;;;;;;;;;;;;;;;5.30;100.00;100492.53;4820434;29;19936;-78
2022/03/20 05:04:28;;;;;;;;;;;;;;;5.28;100.00;100494.03;4876251;29;19928;-77
2022/03/20 05:06:55;;;;;;;;;;;;;;;5.27;100.00;100490.47;4876390;29;20023;-77
2022/03/20 05:15:23;;;;;;;;;;;;;;;5.22;100.00;100496.28;4874010;29;19928;-77
2022/03/20 05:18:00;;;;;;;;;;;;;;;5.37;100.00;100498.28;4901155;29;19938;-78
2022/03/20 05:20:52;;;;;;;;;;;;;;;5.18;100.00;100492.59;4917017;29;19927;-77
2022/03/20 05:23:35;;;;;;;;;;;;;;;5.02;100.00;100494.50;4917555;29;19927;-78
2022/03/20 05:26:32;;;;;;;;;;;;;;;5.08;100.00;100492.28;4861725;29;19992;-77
2022/03/20 05:29:28;;;;;;;;;;;;;;;5.21;100.00;100493.88;4855804;29;19962;-78
2022/03/20 05:31:56;;;;;;;;;;;;;;;5.20;100.00;100493.03;4907417;29;19926;-77
2022/03/20 05:34:26;;;;;;;;;;;;;;;5.32;100.00;100494.94;4905166;29;20278;-77
2022/03/20 05:37:13;;;;;;;;;;;;;;;5.03;100.00;100493.34;4934558;29;19966;-77
2022/03/20 05:39:46;;;;;;;;;;;;;;;5.17;100.00;100499.28;4935956;29;19927;-78
2022/03/20 05:42:24;;;;;;;;;;;;;;;5.31;100.00;100509.97;4921003;29;19927;-78
2022/03/20 05:44:54;;;;;;;;;;;;;;;5.36;100.00;100507.75;4916711;29;20006;-78
2022/03/20 05:47:22;;;;;;;;;;;;;;;5.42;100.00;100500.78;4915914;29;20582;-77
2022/03/20 05:49:51;;;;;;;;;;;;;;;5.32;100.00;100498.53;4884900;29;20087;-78
2022/03/20 05:52:38;;;;;;;;;;;;;;;5.22;100.00;100498.22;4897639;29;19928;-77
2022/03/20 05:55:16;;;;;;;;;;;;;;;5.31;100.00;100499.69;4897973;29;19951;-77
2022/03/20 05:58:03;;;;;;;;;;;;;;;5.27;100.00;100498.78;4866695;29;20340;-78
2022/03/20 06:00:30;;;;;;;;;;;;;;;5.32;100.00;100501.31;4897666;29;19928;-78
2022/03/20 06:03:19;;;;;;;;;;;;;;;5.40;100.00;100514.19;4942531;28;19926;-78
2022/03/20 06:05:47;;;;;;;;;;;;;;;5.33;100.00;100508.44;4993174;28;19926;-78
2022/03/20 06:08:21;;;;;;;;;;;;;;;5.31;100.00;100505.25;4993361;28;19993;-78
2022/03/20 06:10:50;;;;;;;;;;;;;;;5.24;100.00;100507.78;4993417;28;20415;-78
2022/03/20 06:13:37;;;;;;;;;;;;;;;5.37;100.00;100503.81;4993082;28;19932;-78
2022/03/20 06:16:23;;;;;;;;;;;;;;;5.32;100.00;100506.84;4980036;28;20451;-78
2022/03/20 06:19:08;;;;;;;;;;;;;;;5.11;100.00;100500.72;4996041;28;19933;-81
2022/03/20 06:21:36;;;;;;;;;;;;;;;5.07;100.00;100502.56;4996203;28;19988;-77
2022/03/20 06:24:24;;;;;;;;;;;;;;;5.11;100.00;100502.66;5013510;28;19925;-78
2022/03/20 06:26:58;;;;;;;;;;;;;;;5.33;100.00;100500.13;5015903;28;20276;-76
2022/03/20 06:29:44;;;;;;;;;;;;;;;5.11;100.00;100497.13;5014245;28;20285;-78
2022/03/20 06:32:35;;;;;;;;;;;;;;;5.07;100.00;100488.69;5009434;28;19925;-77
2022/03/20 06:35:25;;;;;;;;;;;;;;;5.13;100.00;100480.97;5013985;28;20491;-77
2022/03/20 06:37:54;;;;;;;;;;;;;;;5.04;100.00;100483.06;5014766;28;20012;-77
2022/03/20 06:40:22;;;;;;;;;;;;;;;5.08;100.00;100483.97;5014741;28;19925;-77
2022/03/20 06:42:49;;;;;;;;;;;;;;;5.03;100.00;100473.94;5013024;28;19932;-77
2022/03/20 06:45:24;;;;;;;;;;;;;;;5.10;100.00;100485.22;5028241;28;19925;-76
2022/03/20 06:47:52;;;;;;;;;;;;;;;5.15;100.00;100487.75;5014173;28;19957;-77
2022/03/20 06:50:40;;;;;;;;;;;;;;;5.28;100.00;100491.28;5014161;28;20380;-77
2022/03/20 06:53:10;;;;;;;;;;;;;;;5.26;100.00;100488.03;5029575;28;19979;-77
2022/03/20 06:55:39;;;;;;;;;;;;;;;5.35;100.00;100483.97;5014277;28;19925;-76
2022/03/20 06:58:27;;;;;;;;;;;;;;;5.55;100.00;100485.69;4953573;29;20295;-77
2022/03/20 07:01:02;;;;;;;;;;;;;;;5.49;100.00;100494.63;4954306;28;20349;-77
2022/03/20 07:03:32;;;;;;;;;;;;;;;5.41;100.00;100488.09;4953794;29;20396;-77
2022/03/20 07:06:00;;;;;;;;;;;;;;;5.31;100.00;100483.06;4948222;29;19931;-77
2022/03/20 07:08:29;;;;;;;;;;;;;;;5.30;100.00;100478.66;4953398;29;19934;-77
2022/03/20 07:11:02;;;;;;;;;;;;;;;5.32;100.00;100472.78;4953441;29;19937;-77
2022/03/20 07:13:49;;;;;;;;;;;;;;;5.53;100.00;100471.38;4953668;29;19933;-77
2022/03/20 07:16:17;;;;;;;;;;;;;;;5.47;100.00;100469.22;4953969;29;20025;-77
2022/03/20 07:18:48;;;;;;;;;;;;;;;5.39;100.00;100465.44;4954114;29;19933;-77
2022/03/20 07:21:15;;;;;;;;;;;;;;;5.49;100.00;100478.81;4952458;29;19926;-76
2022/03/20 07:23:42;;;;;;;;;;;;;;;5.46;100.00;100479.53;4945071;28;19934;-76
2022/03/20 07:32:15;;;;;;;;;;;;;;;6.07;100.00;100487.44;5090249;28;20460;-77
2022/03/20 07:34:46;;;;;;;;;;;;;;;5.85;100.00;100480.53;5088885;28;19924;-78
2022/03/20 07:37:17;;;;;;;;;;;;;;;6.02;100.00;100484.91;5088601;28;19925;-77
2022/03/20 07:39:46;;;;;;;;;;;;;;;5.87;100.00;100485.72;5085983;28;19959;-77
2022/03/20 07:42:34;;;;;;;;;;;;;;;5.63;100.00;100481.94;5075466;28;19924;-77
2022/03/20 07:45:03;;;;;;;;;;;;;;;6.06;100.00;100485.84;5088238;28;19946;-78
2022/03/20 07:47:29;;;;;;;;;;;;;;;6.23;100.00;100488.22;5087879;28;19931;-77
2022/03/20 07:49:59;;;;;;;;;;;;;;;5.98;100.00;100479.31;5091015;28;19964;-78
2022/03/20 07:52:30;;;;;;;;;;;;;;;6.30;100.00;100480.84;5089621;28;19951;-77
2022/03/20 07:54:58;;;;;;;;;;;;;;;6.50;100.00;100484.47;5106563;28;19924;-76
2022/03/20 07:57:25;;;;;;;;;;;;;;;6.09;100.00;100468.47;5110969;28;19931;-76
2022/03/20 07:59:52;;;;;;;;;;;;;;;5.86;100.00;100470.25;5109252;28;19924;-76
2022/03/20 08:02:19;;;;;;;;;;;;;;;5.95;100.00;100470.88;5109703;28;19931;-76
2022/03/20 08:04:46;;;;;;;;;;;;;;;6.15;100.00;100461.47;5110964;28;19952;-76
2022/03/20 08:07:13;;;;;;;;;;;;;;;6.56;100.00;100460.81;5093009;28;19966;-76
2022/03/20 08:09:40;;;;;;;;;;;;;;;6.67;100.00;100467.41;5110745;28;20018;-76
2022/03/20 08:12:08;;;;;;;;;;;;;;;6.86;100.00;100459.09;5098162;28;19925;-76
2022/03/20 08:14:56;;;;;;;;;;;;;;;7.00;100.00;100459.38;5090430;28;19967;-76
2022/03/20 08:17:23;;;;;;;;;;;;;;;7.01;100.00;100447.09;5089117;28;19930;-77
2022/03/20 08:19:50;;;;;;;;;;;;;;;6.74;100.00;100451.69;5090181;28;20465;-77
2022/03/20 08:22:17;;;;;;;;;;;;;;;6.74;100.00;100451.69;5090177;28;19978;-77
2022/03/20 08:24:47;;;;;;;;;;;;;;;6.91;100.00;100447.66;5084358;28;19931;-77
2022/03/20 08:27:14;;;;;;;;;;;;;;;6.75;100.00;100452.50;5085792;28;19931;-77
2022/03/20 08:29:42;;;;;;;;;;;;;;;6.89;100.00;100447.25;5085684;28;19928;-76
2022/03/20 08:32:09;;;;;;;;;;;;;;;7.04;100.00;100438.03;5085655;28;19925;-77
2022/03/20 08:34:38;;;;;;;;;;;;;;;7.52;100.00;100431.78;5084887;28;19962;-77
2022/03/20 08:37:05;;;;;;;;;;;;;;;7.42;100.00;100431.59;5085978;28;19939;-77
2022/03/20 08:39:32;;;;;;;;;;;;;;;7.05;100.00;100428.50;5085948;28;19965;-77
2022/03/20 08:41:59;;;;;;;;;;;;;;;7.29;100.00;100417.06;5080618;28;19928;-77
2022/03/20 08:44:28;;;;;;;;;;;;;;;7.22;100.00;100414.94;5071863;28;20019;-77
2022/03/20 08:46:55;;;;;;;;;;;;;;;7.30;100.00;100413.09;5054064;28;19924;-77
2022/03/20 08:49:22;;;;;;;;;;;;;;;7.80;100.00;100412.78;5072504;28;19971;-77
2022/03/20 08:51:51;;;;;;;;;;;;;;;7.53;100.00;100407.56;5089086;28;19935;-77
2022/03/20 08:54:18;;;;;;;;;;;;;;;7.98;100.00;100411.09;5092462;28;19928;-77
2022/03/20 08:56:45;;;;;;;;;;;;;;;7.68;100.00;100412.19;5092704;28;19931;-75
2022/03/20 08:59:12;;;;;;;;;;;;;;;7.46;100.00;100418.56;5092321;28;20018;-76
2022/03/20 09:01:39;;;;;;;;;;;;;;;7.46;100.00;100408.25;5091758;28;19924;-76
2022/03/20 09:04:32;;;;;;;;;;;;;;;7.57;100.00;100414.78;5074628;28;19924;-75
2022/03/20 09:06:59;;;;;;;;;;;;;;;7.93;100.00;100414.19;5092179;28;19925;-76
2022/03/20 09:09:28;;;;;;;;;;;;;;;7.60;100.00;100413.25;5092222;28;19950;-76
2022/03/20 09:11:55;;;;;;;;;;;;;;;7.61;100.00;100406.50;5091993;28;19928;-74
2022/03/20 09:14:22;;;;;;;;;;;;;;;7.08;100.00;100403.56;5091988;28;19924;-74
2022/03/20 09:19:36;;;;;;;;;;;;;;;7.34;100.00;100400.06;5074151;28;19931;-76
2022/03/20 09:22:11;;;;;;;;;;;;;;;7.09;100.00;100407.13;5069747;28;19951;-76
2022/03/20 09:24:38;;;;;;;;;;;;;;;6.87;100.00;100394.81;5068178;28;20441;-75
2022/03/20 09:27:25;;;;;;;;;;;;;;;7.54;100.00;100396.06;5068723;28;19931;-76
2022/03/20 09:29:52;;;;;;;;;;;;;;;7.53;100.00;100399.22;5073667;28;19928;-75
2022/03/20 09:32:20;;;;;;;;;;;;;;;7.56;100.00;100393.69;5070983;28;19932;-76
2022/03/20 09:34:47;;;;;;;;;;;;;;;8.03;100.00;100396.84;5071015;28;19924;-76
2022/03/20 09:37:14;;;;;;;;;;;;;;;7.81;100.00;100389.38;5083488;28;20077;-76
2022/03/20 09:39:41;;;;;;;;;;;;;;;7.92;100.00;100390.31;5091116;28;20015;-76
2022/03/20 09:42:09;;;;;;;;;;;;;;;7.94;100.00;100382.41;5091545;28;19935;-76
2022/03/20 09:44:38;;;;;;;;;;;;;;;8.00;100.00;100380.91;5092120;28;19924;-76
2022/03/20 09:47:12;;;;;;;;;;;;;;;8.00;100.00;100378.13;5091539;28;19935;-76
2022/03/20 09:49:40;;;;;;;;;;;;;;;8.28;100.00;100370.22;5075705;28;20374;-76
2022/03/20 09:52:07;;;;;;;;;;;;;;;8.22;100.00;100365.31;5069809;28;19952;-76
2022/03/20 09:54:34;;;;;;;;;;;;;;;7.75;100.00;100368.59;5072505;28;20450;-76
2022/03/20 09:57:06;;;;;;;;;;;;;;;8.42;100.00;100359.25;5066106;28;19924;-76
2022/03/20 09:59:33;;;;;;;;;;;;;;;8.79;100.00;100351.75;5069929;28;19931;-76
2022/03/20 10:02:02;;;;;;;;;;;;;;;8.68;100.00;100342.47;5064727;28;19936;-76
2022/03/20 10:04:30;;;;;;;;;;;;;;;8.48;100.00;100334.66;5070635;28;19924;-77
2022/03/20 10:06:58;;;;;;;;;;;;;;;8.51;100.00;100326.34;5075433;28;19935;-77
2022/03/20 10:09:26;;;;;;;;;;;;;;;8.66;100.00;100330.88;5091395;28;19924;-76
2022/03/20 10:11:57;;;;;;;;;;;;;;;8.67;100.00;100321.38;5090381;28;19954;-76
2022/03/20 10:14:34;;;;;;;;;;;;;;;8.59;100.00;100308.53;5090702;28;19930;-76
2022/03/20 10:17:14;;;;;;;;;;;;;;;8.52;100.00;100308.47;5089620;28;19924;-78
2022/03/20 10:19:41;;;;;;;;;;;;;;;8.50;100.00;100310.81;5089241;28;19967;-76
2022/03/20 10:22:09;;;;;;;;;;;;;;;8.61;100.00;100303.38;5091032;28;19924;-76
2022/03/20 10:24:37;;;;;;;;;;;;;;;8.60;100.00;100304.56;5090666;28;19924;-76
2022/03/20 10:27:05;;;;;;;;;;;;;;;8.88;100.00;100299.31;5088612;28;20333;-77
2022/03/20 10:29:33;;;;;;;;;;;;;;;8.77;100.00;100308.72;5090682;28;19924;-77
2022/03/20 10:32:07;;;;;;;;;;;;;;;8.74;100.00;100290.78;5089449;28;19963;-76
2022/03/20 10:34:47;;;;;;;;;;;;;;;8.90;100.00;100283.00;5078745;28;19932;-77
2022/03/20 10:37:14;;;;;;;;;;;;;;;8.99;100.00;100283.50;5052318;28;19978;-77
2022/03/20 10:39:42;;;;;;;;;;;;;;;9.43;100.00;100283.47;5067407;28;19925;-77
2022/03/20 10:42:12;;;;;;;;;;;;;;;8.93;100.00;100279.44;5070568;28;20382;-78
2022/03/20 10:44:39;;;;;;;;;;;;;;;8.95;100.00;100268.69;5055262;28;19924;-77
2022/03/20 10:47:16;;;;;;;;;;;;;;;9.36;100.00;100271.47;5068131;28;19931;-77
2022/03/20 10:49:50;;;;;;;;;;;;;;;9.47;100.00;100252.78;5069226;28;19924;-77
2022/03/20 11:00:48;;;;;;;;;;;;;;;8.85;100.00;100249.91;5031749;28;19939;-77
2022/03/20 11:03:19;;;;;;;;;;;;;;;8.70;100.00;100247.34;5012473;28;20358;-76
2022/03/20 11:05:47;;;;;;;;;;;;;;;8.80;100.00;100224.34;5034771;28;19952;-76
2022/03/20 11:08:28;;;;;;;;;;;;;;;8.55;100.00;100224.13;4999141;28;20330;-77
2022/03/20 11:11:20;;;;;;;;;;;;;;;8.77;100.00;100227.91;5006917;28;19926;-78
2022/03/20 11:13:48;;;;;;;;;;;;;;;8.78;100.00;100210.78;5006777;28;19929;-77
2022/03/20 11:20:22;;;;;;;;;;;;;;;9.14;100.00;100201.56;5030544;28;19921;-77
2022/03/20 11:22:51;;;;;;;;;;;;;;;9.65;100.00;100201.50;5009213;28;19925;-77
2022/03/20 11:25:21;;;;;;;;;;;;;;;9.62;100.00;100199.47;5009638;28;19925;-79
2022/03/20 11:27:55;;;;;;;;;;;;;;;9.75;100.00;100191.59;5069434;28;20621;-78
2022/03/20 11:30:27;;;;;;;;;;;;;;;10.11;100.00;100193.38;5051062;28;19928;-78
2022/03/20 11:32:56;;;;;;;;;;;;;;;10.09;100.00;100187.38;5062235;28;19924;-78
2022/03/20 11:35:25;;;;;;;;;;;;;;;10.81;100.00;100177.53;5069162;28;20379;-79
2022/03/20 11:37:54;;;;;;;;;;;;;;;10.40;100.00;100186.69;5075143;28;19978;-78
2022/03/20 11:40:24;;;;;;;;;;;;;;;10.52;100.00;100172.34;5085449;28;20286;-78
2022/03/20 11:43:11;;;;;;;;;;;;;;;9.93;100.00;100158.97;5068087;28;19928;-78
2022/03/20 11:45:39;;;;;;;;;;;;;;;9.95;100.00;100176.13;5072062;28;19935;-79
2022/03/20 11:48:13;;;;;;;;;;;;;;;9.79;100.00;100170.88;5069031;28;19947;-79
2022/03/20 11:50:41;;;;;;;;;;;;;;;9.00;100.00;100172.75;5067919;28;20006;-78
2022/03/20 11:53:40;;;;;;;;;;;;;;;8.90;100.00;100177.09;5070323;28;19951;-78
2022/03/20 11:56:29;;;;;;;;;;;;;;;8.86;100.00;100179.03;5070089;28;20290;-79
2022/03/20 11:59:05;;;;;;;;;;;;;;;9.60;100.00;100181.53;5070111;28;19932;-78
2022/03/20 12:01:55;;;;;;;;;;;;;;;9.59;100.00;100177.16;5071658;28;19997;-78
2022/03/20 12:04:25;;;;;;;;;;;;;;;9.41;100.00;100188.19;5067449;28;20798;-78
2022/03/20 12:07:40;;;;;;;;;;;;;;;9.10;100.00;100184.00;5065649;28;20302;-78
2022/03/20 12:10:22;;;;;;;;;;;;;;;9.11;100.00;100184.81;5072574;28;19956;-78
2022/03/20 12:13:04;;;;;;;;;;;;;;;9.07;100.00;100184.75;5084035;28;20298;-79
2022/03/20 12:16:01;;;;;;;;;;;;;;;9.02;100.00;100168.41;5071195;28;20426;-78
2022/03/20 12:18:38;;;;;;;;;;;;;;;9.27;100.00;100162.22;5055156;28;20023;-78
2022/03/20 12:21:17;;;;;;;;;;;;;;;8.89;100.00;100164.31;5094662;27;20434;-77
2022/03/20 12:23:45;;;;;;;;;;;;;;;9.42;100.00;100169.47;5082352;28;19924;-78
2022/03/20 12:26:34;;;;;;;;;;;;;;;9.24;100.00;100157.41;5086668;28;19924;-78
2022/03/20 12:29:32;;;;;;;;;;;;;;;9.27;100.00;100148.28;5074274;28;20387;-78
2022/03/20 12:32:00;;;;;;;;;;;;;;;9.47;100.00;100135.63;5078519;28;19931;-78
2022/03/20 12:34:30;;;;;;;;;;;;;;;9.84;100.00;100130.63;5092780;28;20309;-78
2022/03/20 12:37:20;;;;;;;;;;;;;;;9.97;100.00;100120.69;5093404;28;19924;-79
2022/03/20 12:39:52;;;;;;;;;;;;;;;9.50;100.00;100118.09;5074667;28;20295;-79
2022/03/20 12:42:19;;;;;;;;;;;;;;;9.61;100.00;100113.38;5088527;28;20379;-80
2022/03/20 12:44:47;;;;;;;;;;;;;;;9.68;100.00;100105.06;5089290;28;19958;-78
2022/03/20 12:47:24;;;;;;;;;;;;;;;9.60;100.00;100100.63;5052706;28;19925;-79
2022/03/20 12:50:11;;;;;;;;;;;;;;;9.88;100.00;100089.53;5051287;28;19932;-80
2022/03/20 12:52:39;;;;;;;;;;;;;;;9.76;100.00;100075.94;5052858;28;20563;-78
2022/03/20 12:55:10;;;;;;;;;;;;;;;9.50;100.00;100076.25;5052330;28;19932;-78
2022/03/20 12:57:41;;;;;;;;;;;;;;;9.31;100.00;100077.38;5052170;28;20379;-78
2022/03/20 13:00:12;;;;;;;;;;;;;;;9.53;100.00;100084.63;5070046;28;20069;-78
2022/03/20 13:03:09;;;;;;;;;;;;;;;;;;;;;
2022/03/20 13:06:51;;;;;;;;;;;;;;;10.16;100.00;100084.06;5068040;28;19931;-78
2022/03/20 13:09:18;;;;;;;;;;;;;;;10.23;100.00;100078.50;5104694;27;20011;-79
2022/03/20 13:11:48;;;;;;;;;;;;;;;10.38;100.00;100064.16;5080811;28;19933;-78
2022/03/20 13:14:15;;;;;;;;;;;;;;;10.26;100.00;100066.53;5079208;28;19924;-78
2022/03/20 13:16:55;;;;;;;;;;;;;;;10.58;100.00;100051.38;5083023;28;20530;-79
2022/03/20 13:19:26;;;;;;;;;;;;;;;10.67;100.00;100050.97;5091235;28;20381;-78
2022/03/20 13:21:55;;;;;;;;;;;;;;;10.54;100.00;100055.38;5076768;28;19951;-77
2022/03/20 13:24:33;;;;;;;;;;;;;;;10.39;100.00;100051.75;5088885;28;19924;-79
2022/03/20 13:27:01;;;;;;;;;;;;;;;10.29;100.00;100069.34;5070828;28;19924;-78
2022/03/20 13:29:29;;;;;;;;;;;;;;;10.22;100.00;100060.91;5088493;28;20550;-78
2022/03/20 13:32:10;;;;;;;;;;;;;;;10.29;100.00;100065.72;5075457;28;20348;-79
2022/03/20 13:34:42;;;;;;;;;;;;;;;10.47;100.00;100063.75;5090188;28;19930;-78
2022/03/20 13:37:11;;;;;;;;;;;;;;;9.99;100.00;100056.88;5077552;28;20279;-78
2022/03/20 13:39:44;;;;;;;;;;;;;;;10.77;100.00;100041.75;5078274;28;19924;-79
2022/03/20 13:42:11;;;;;;;;;;;;;;;10.62;100.00;100054.16;5071905;28;19931;-79
2022/03/20 13:44:38;;;;;;;;;;;;;;;10.60;100.00;100060.16;5070108;28;19924;-79
2022/03/20 13:47:06;;;;;;;;;;;;;;;10.13;100.00;100048.56;5088220;28;19924;-78
2022/03/20 13:49:33;;;;;;;;;;;;;;;10.55;100.00;100043.81;5083409;28;19924;-78
2022/03/20 13:52:01;;;;;;;;;;;;;;;10.29;100.00;100044.19;5071048;28;20673;-79
2022/03/20 13:54:29;;;;;;;;;;;;;;;10.72;100.00;100039.38;5086411;28;19924;-80
2022/03/20 13:57:05;;;;;;;;;;;;;;;10.49;100.00;100034.22;5091948;28;20440;-79
2022/03/20 13:59:46;;;;;;;;;;;;;;;10.51;100.00;100036.63;5051850;28;19924;-79
2022/03/20 14:02:13;;;;;;;;;;;;;;;10.45;100.00;100038.22;5083757;28;19928;-79
2022/03/20 14:04:40;;;;;;;;;;;;;;;10.80;100.00;100030.59;5091407;28;19924;-79
2022/03/20 14:07:18;;;;;;;;;;;;;;;10.85;100.00;100026.56;5090012;28;20397;-79
2022/03/20 14:09:47;;;;;;;;;;;;;;;10.47;100.00;100025.44;5074767;28;20323;-79